sensor_id;sensor_type;location;lat;lon;timestamp;pressure;altitude;pressure_sealevel;temperature;humidity
48630;BME280;34426;52.180;4.462;2024-03-23T00:54:19;101186.88;;;7.22;100.00
48630;BME280;34426;52.180;4.462;2024-03-23T00:56:44;101181.69;;;7.26;100.00
48630;BME280;34426;52.180;4.462;2024-03-23T00:59:09;101188.56;;;7.23;100.00
48630;BME280;34426;52.180;4.462;2024-03-23T01:01:35;101177.31;;;7.18;100.00
48630;BME280;34426;52.180;4.462;2024-03-23T01:04:00;101180.09;;;7.18;100.00
48630;BME280;34426;52.180;4.462;2024-03-23T01:06:26;101174.25;;;7.08;100.00
48630;BME280;34426;52.180;4.462;2024-03-23T01:08:51;101175.34;;;7.07;100.00
48630;BME280;34426;52.180;4.462;2024-03-23T01:11:17;101164.97;;;7.14;100.00
48630;BME280;34426;52.180;4.462;2024-03-23T01:13:43;101168.50;;;7.21;100.00
48630;BME280;34426;52.180;4.462;2024-03-23T01:16:08;101159.53;;;7.19;100.00
48630;BME280;34426;52.180;4.462;2024-03-23T01:18:34;101160.16;;;7.21;100.00
48630;BME280;34426;52.180;4.462;2024-03-23T01:20:59;101167.28;;;7.17;100.00
48630;BME280;34426;52.180;4.462;2024-03-23T01:23:24;101164.88;;;7.21;100.00
48630;BME280;34426;52.180;4.462;2024-03-23T01:25:53;101157.03;;;7.29;100.00
48630;BME280;34426;52.180;4.462;2024-03-23T01:28:19;101170.31;;;7.39;100.00
48630;BME280;34426;52.180;4.462;2024-03-23T01:30:44;101167.31;;;7.52;99.94
48630;BME280;34426;52.180;4.462;2024-03-23T01:33:10;101173.88;;;7.58;100.00
48630;BME280;34426;52.180;4.462;2024-03-23T01:35:36;101164.44;;;7.59;100.00
48630;BME280;34426;52.180;4.462;2024-03-23T01:38:01;101164.06;;;7.55;100.00
48630;BME280;34426;52.180;4.462;2024-03-23T01:40:26;101164.91;;;7.56;100.00
48630;BME280;34426;52.180;4.462;2024-03-23T01:42:55;101153.78;;;7.56;99.54
48630;BME280;34426;52.180;4.462;2024-03-23T01:45:21;101163.69;;;7.52;98.60
48630;BME280;34426;52.180;4.462;2024-03-23T01:47:47;101144.56;;;7.55;96.52
48630;BME280;34426;52.180;4.462;2024-03-23T01:50:13;101140.94;;;7.55;97.41
48630;BME280;34426;52.180;4.462;2024-03-23T01:52:38;101145.06;;;7.52;98.60
48630;BME280;34426;52.180;4.462;2024-03-23T01:55:04;101143.59;;;7.50;98.44
48630;BME280;34426;52.180;4.462;2024-03-23T01:57:30;101147.00;;;7.52;98.34
48630;BME280;34426;52.180;4.462;2024-03-23T01:59:55;101150.50;;;7.47;98.54
48630;BME280;34426;52.180;4.462;2024-03-23T02:02:22;101140.69;;;7.45;99.42
48630;BME280;34426;52.180;4.462;2024-03-23T02:04:47;101139.00;;;7.44;99.96
48630;BME280;34426;52.180;4.462;2024-03-23T02:07:13;101136.09;;;7.39;100.00
48630;BME280;34426;52.180;4.462;2024-03-23T02:09:38;101135.75;;;7.35;100.00
48630;BME280;34426;52.180;4.462;2024-03-23T02:12:04;101131.88;;;7.36;100.00
48630;BME280;34426;52.180;4.462;2024-03-23T02:14:30;101127.41;;;7.35;99.88
48630;BME280;34426;52.180;4.462;2024-03-23T02:16:55;101131.03;;;7.36;98.43
48630;BME280;34426;52.180;4.462;2024-03-23T02:19:21;101124.63;;;7.35;97.40
48630;BME280;34426;52.180;4.462;2024-03-23T02:21:47;101120.84;;;7.29;96.51
48630;BME280;34426;52.180;4.462;2024-03-23T02:24:13;101118.19;;;7.34;94.55
48630;BME280;34426;52.180;4.462;2024-03-23T02:26:38;101111.41;;;7.30;94.33
48630;BME280;34426;52.180;4.462;2024-03-23T02:29:04;101114.19;;;7.30;94.06
48630;BME280;34426;52.180;4.462;2024-03-23T02:31:29;101108.41;;;7.32;93.48
48630;BME280;34426;52.180;4.462;2024-03-23T02:33:54;101100.28;;;7.30;92.50
48630;BME280;34426;52.180;4.462;2024-03-23T02:36:20;101098.22;;;7.26;92.91
48630;BME280;34426;52.180;4.462;2024-03-23T02:38:45;101100.63;;;7.22;92.83
48630;BME280;34426;52.180;4.462;2024-03-23T02:41:11;101097.50;;;7.19;93.21
48630;BME280;34426;52.180;4.462;2024-03-23T02:43:37;101093.72;;;7.13;93.96
48630;BME280;34426;52.180;4.462;2024-03-23T02:46:03;101103.53;;;7.16;93.41
48630;BME280;34426;52.180;4.462;2024-03-23T02:48:28;101091.81;;;7.25;91.59
48630;BME280;34426;52.180;4.462;2024-03-23T02:50:53;101090.00;;;7.31;90.77
48630;BME280;34426;52.180;4.462;2024-03-23T02:53:19;101092.78;;;7.43;90.83
48630;BME280;34426;52.180;4.462;2024-03-23T02:55:44;101088.66;;;7.45;91.93
48630;BME280;34426;52.180;4.462;2024-03-23T02:58:10;101097.38;;;7.49;93.86
48630;BME280;34426;52.180;4.462;2024-03-23T03:00:36;101079.97;;;7.53;94.43
48630;BME280;34426;52.180;4.462;2024-03-23T03:03:01;101090.59;;;7.56;95.08
48630;BME280;34426;52.180;4.462;2024-03-23T03:05:27;101090.38;;;7.58;94.13
48630;BME280;34426;52.180;4.462;2024-03-23T03:07:52;101082.00;;;7.58;94.94
48630;BME280;34426;52.180;4.462;2024-03-23T03:10:18;101078.38;;;7.57;94.37
48630;BME280;34426;52.180;4.462;2024-03-23T03:12:43;101086.13;;;7.55;96.10
48630;BME280;34426;52.180;4.462;2024-03-23T03:15:09;101084.56;;;7.48;96.81
48630;BME280;34426;52.180;4.462;2024-03-23T03:17:35;101083.81;;;7.41;97.19
48630;BME280;34426;52.180;4.462;2024-03-23T03:20:00;101084.81;;;7.34;97.81
48630;BME280;34426;52.180;4.462;2024-03-23T03:22:25;101082.63;;;7.25;98.81
48630;BME280;34426;52.180;4.462;2024-03-23T03:24:51;101076.09;;;7.19;98.28
48630;BME280;34426;52.180;4.462;2024-03-23T03:27:16;101087.69;;;7.16;97.58
48630;BME280;34426;52.180;4.462;2024-03-23T03:29:42;101078.13;;;7.12;98.22
48630;BME280;34426;52.180;4.462;2024-03-23T03:32:08;101076.91;;;7.08;98.77
48630;BME280;34426;52.180;4.462;2024-03-23T03:34:33;101072.31;;;7.02;99.79
48630;BME280;34426;52.180;4.462;2024-03-23T03:36:58;101073.38;;;7.01;99.95
48630;BME280;34426;52.180;4.462;2024-03-23T03:39:24;101068.06;;;6.99;99.67
48630;BME280;34426;52.180;4.462;2024-03-23T03:41:49;101066.13;;;7.00;99.57
48630;BME280;34426;52.180;4.462;2024-03-23T03:44:15;101055.84;;;7.00;97.51
48630;BME280;34426;52.180;4.462;2024-03-23T03:46:40;101058.88;;;6.99;97.64
48630;BME280;34426;52.180;4.462;2024-03-23T03:49:06;101058.50;;;6.95;97.13
48630;BME280;34426;52.180;4.462;2024-03-23T03:51:32;101056.34;;;6.97;97.28
48630;BME280;34426;52.180;4.462;2024-03-23T03:53:57;101054.28;;;6.93;98.36
48630;BME280;34426;52.180;4.462;2024-03-23T03:56:23;101054.03;;;6.94;97.46
48630;BME280;34426;52.180;4.462;2024-03-23T03:58:48;101046.53;;;6.95;97.18
48630;BME280;34426;52.180;4.462;2024-03-23T04:01:14;101046.53;;;6.95;98.42
48630;BME280;34426;52.180;4.462;2024-03-23T04:03:39;101051.25;;;6.94;100.00
48630;BME280;34426;52.180;4.462;2024-03-23T04:06:05;101047.88;;;6.92;100.00
48630;BME280;34426;52.180;4.462;2024-03-23T04:08:31;101054.53;;;6.91;100.00
48630;BME280;34426;52.180;4.462;2024-03-23T04:10:56;101044.13;;;6.87;100.00
48630;BME280;34426;52.180;4.462;2024-03-23T04:13:21;101043.28;;;6.86;100.00
48630;BME280;34426;52.180;4.462;2024-03-23T04:15:53;101055.25;;;6.87;100.00
48630;BME280;34426;52.180;4.462;2024-03-23T04:18:19;101038.56;;;6.87;100.00
48630;BME280;34426;52.180;4.462;2024-03-23T04:20:44;101041.59;;;6.85;100.00
48630;BME280;34426;52.180;4.462;2024-03-23T04:23:10;101038.56;;;6.87;100.00
48630;BME280;34426;52.180;4.462;2024-03-23T04:25:36;101042.81;;;6.89;100.00
48630;BME280;34426;52.180;4.462;2024-03-23T04:28:01;101038.09;;;6.90;100.00
48630;BME280;34426;52.180;4.462;2024-03-23T04:30:26;101038.69;;;6.92;100.00
48630;BME280;34426;52.180;4.462;2024-03-23T04:32:52;101030.94;;;6.94;100.00
48630;BME280;34426;52.180;4.462;2024-03-23T04:35:17;101037.09;;;6.96;100.00
48630;BME280;34426;52.180;4.462;2024-03-23T04:37:43;101039.28;;;6.94;100.00
48630;BME280;34426;52.180;4.462;2024-03-23T04:40:09;101037.34;;;6.94;100.00
48630;BME280;34426;52.180;4.462;2024-03-23T04:42:35;101039.88;;;6.96;100.00
48630;BME280;34426;52.180;4.462;2024-03-23T04:45:00;101046.06;;;6.98;100.00
48630;BME280;34426;52.180;4.462;2024-03-23T04:47:26;101038.81;;;6.97;100.00
48630;BME280;34426;52.180;4.462;2024-03-23T04:49:51;101051.63;;;6.98;100.00
48630;BME280;34426;52.180;4.462;2024-03-23T04:52:17;101045.56;;;7.01;100.00
48630;BME280;34426;52.180;4.462;2024-03-23T04:54:42;101058.16;;;7.04;100.00
48630;BME280;34426;52.180;4.462;2024-03-23T04:57:09;101043.41;;;7.03;100.00
48630;BME280;34426;52.180;4.462;2024-03-23T04:59:34;101057.31;;;7.03;100.00
48630;BME280;34426;52.180;4.462;2024-03-23T05:01:59;101054.16;;;6.99;100.00
48630;BME280;34426;52.180;4.462;2024-03-23T05:04:25;101040.00;;;7.01;100.00
48630;BME280;34426;52.180;4.462;2024-03-23T05:06:50;101046.19;;;7.03;100.00
48630;BME280;34426;52.180;4.462;2024-03-23T05:09:16;101047.88;;;7.04;100.00
48630;BME280;34426;52.180;4.462;2024-03-23T05:11:41;101050.66;;;7.04;100.00
48630;BME280;34426;52.180;4.462;2024-03-23T05:14:07;101051.63;;;6.98;99.73
48630;BME280;34426;52.180;4.462;2024-03-23T05:16:33;101035.78;;;6.98;99.03
48630;BME280;34426;52.180;4.462;2024-03-23T05:18:58;101054.03;;;6.94;99.69
48630;BME280;34426;52.180;4.462;2024-03-23T05:21:24;101046.91;;;6.87;100.00
48630;BME280;34426;52.180;4.462;2024-03-23T05:23:49;101052.47;;;6.87;99.59
48630;BME280;34426;52.180;4.462;2024-03-23T05:26:15;101044.97;;;6.87;100.00
48630;BME280;34426;52.180;4.462;2024-03-23T05:28:40;101051.38;;;6.88;100.00
48630;BME280;34426;52.180;4.462;2024-03-23T05:31:06;101040.25;;;6.88;100.00
48630;BME280;34426;52.180;4.462;2024-03-23T05:33:32;101038.81;;;6.85;100.00
48630;BME280;34426;52.180;4.462;2024-03-23T05:35:58;101046.78;;;6.82;100.00
48630;BME280;34426;52.180;4.462;2024-03-23T05:38:24;101045.56;;;6.78;100.00
48630;BME280;34426;52.180;4.462;2024-03-23T05:40:53;101046.03;;;6.75;100.00
48630;BME280;34426;52.180;4.462;2024-03-23T05:43:19;101042.41;;;6.74;100.00
48630;BME280;34426;52.180;4.462;2024-03-23T05:45:44;101042.41;;;6.74;100.00
48630;BME280;34426;52.180;4.462;2024-03-23T05:48:10;101044.56;;;6.72;100.00
48630;BME280;34426;52.180;4.462;2024-03-23T05:50:36;101044.19;;;6.68;100.00
48630;BME280;34426;52.180;4.462;2024-03-23T05:53:01;101031.75;;;6.71;100.00
48630;BME280;34426;52.180;4.462;2024-03-23T05:55:26;101036.22;;;6.72;100.00
48630;BME280;34426;52.180;4.462;2024-03-23T05:57:52;101033.22;;;6.74;100.00
48630;BME280;34426;52.180;4.462;2024-03-23T06:00:18;101028.38;;;6.69;100.00
48630;BME280;34426;52.180;4.462;2024-03-23T06:02:43;101030.78;;;6.65;100.00
48630;BME280;34426;52.180;4.462;2024-03-23T06:05:09;101032.47;;;6.66;100.00
48630;BME280;34426;52.180;4.462;2024-03-23T06:07:35;101041.03;;;6.65;100.00
48630;BME280;34426;52.180;4.462;2024-03-23T06:10:00;101040.66;;;6.61;100.00
48630;BME280;34426;52.180;4.462;2024-03-23T06:12:26;101030.03;;;6.58;100.00
48630;BME280;34426;52.180;4.462;2024-03-23T06:14:51;101038.50;;;6.63;100.00
48630;BME280;34426;52.180;4.462;2024-03-23T06:17:16;101035.38;;;6.72;100.00
48630;BME280;34426;52.180;4.462;2024-03-23T06:19:42;101048.81;;;6.75;100.00
48630;BME280;34426;52.180;4.462;2024-03-23T06:22:08;101028.13;;;6.71;100.00
48630;BME280;34426;52.180;4.462;2024-03-23T06:24:33;101044.56;;;6.72;100.00
48630;BME280;34426;52.180;4.462;2024-03-23T06:26:59;101069.22;;;6.68;100.00
48630;BME280;34426;52.180;4.462;2024-03-23T06:29:24;101042.38;;;6.62;100.00
48630;BME280;34426;52.180;4.462;2024-03-23T06:31:53;101043.22;;;6.63;100.00
48630;BME280;34426;52.180;4.462;2024-03-23T06:34:19;101043.59;;;6.66;100.00
48630;BME280;34426;52.180;4.462;2024-03-23T06:36:44;101049.75;;;6.68;100.00
48630;BME280;34426;52.180;4.462;2024-03-23T06:39:10;101037.44;;;6.76;100.00
48630;BME280;34426;52.180;4.462;2024-03-23T06:41:35;101029.50;;;6.80;100.00
48630;BME280;34426;52.180;4.462;2024-03-23T06:44:01;101045.09;;;6.81;100.00
48630;BME280;34426;52.180;4.462;2024-03-23T06:46:26;101034.22;;;6.91;100.00
48630;BME280;34426;52.180;4.462;2024-03-23T06:48:52;101057.78;;;6.88;100.00
48630;BME280;34426;52.180;4.462;2024-03-23T06:51:17;101034.22;;;6.91;100.00
48630;BME280;34426;52.180;4.462;2024-03-23T06:53:42;101033.25;;;6.97;100.00
48630;BME280;34426;52.180;4.462;2024-03-23T06:56:08;101034.22;;;7.03;98.93
48630;BME280;34426;52.180;4.462;2024-03-23T06:58:34;101037.72;;;6.98;97.11
48630;BME280;34426;52.180;4.462;2024-03-23T07:00:59;101038.94;;;7.02;98.38
48630;BME280;34426;52.180;4.462;2024-03-23T07:03:25;101044.25;;;7.04;99.99
48630;BME280;34426;52.180;4.462;2024-03-23T07:05:50;101046.78;;;7.05;100.00
48630;BME280;34426;52.180;4.462;2024-03-23T07:08:15;101044.25;;;7.04;100.00
48630;BME280;34426;52.180;4.462;2024-03-23T07:10:41;101048.22;;;6.96;100.00
48630;BME280;34426;52.180;4.462;2024-03-23T07:13:07;101043.66;;;6.90;99.14
48630;BME280;34426;52.180;4.462;2024-03-23T07:15:33;101045.22;;;6.86;99.34
48630;BME280;34426;52.180;4.462;2024-03-23T07:17:58;101044.50;;;6.90;99.04
48630;BME280;34426;52.180;4.462;2024-03-23T07:20:23;101041.56;;;6.97;98.99
48630;BME280;34426;52.180;4.462;2024-03-23T07:22:49;101041.72;;;7.02;99.67
48630;BME280;34426;52.180;4.462;2024-03-23T07:25:14;101038.09;;;7.13;99.97
48630;BME280;34426;52.180;4.462;2024-03-23T07:27:40;101038.47;;;7.17;100.00
48630;BME280;34426;52.180;4.462;2024-03-23T07:30:07;101037.63;;;7.16;99.66
48630;BME280;34426;52.180;4.462;2024-03-23T07:32:33;101042.34;;;7.16;99.15
48630;BME280;34426;52.180;4.462;2024-03-23T07:34:58;101031.34;;;7.21;98.11
48630;BME280;34426;52.180;4.462;2024-03-23T07:37:23;101063.38;;;7.12;97.27
48630;BME280;34426;52.180;4.462;2024-03-23T07:39:49;101044.50;;;7.14;95.87
48630;BME280;34426;52.180;4.462;2024-03-23T07:42:14;101036.19;;;7.25;96.91
48630;BME280;34426;52.180;4.462;2024-03-23T07:44:40;101034.59;;;7.29;94.47
48630;BME280;34426;52.180;4.462;2024-03-23T07:47:06;101039.69;;;7.32;94.59
48630;BME280;34426;52.180;4.462;2024-03-23T07:49:31;101032.66;;;7.30;93.39
48630;BME280;34426;52.180;4.462;2024-03-23T07:51:56;101030.84;;;7.36;94.13
48630;BME280;34426;52.180;4.462;2024-03-23T07:54:22;101030.75;;;7.30;94.67
48630;BME280;34426;52.180;4.462;2024-03-23T07:56:48;101042.84;;;7.36;95.51
48630;BME280;34426;52.180;4.462;2024-03-23T07:59:13;101035.06;;;7.38;95.32
48630;BME280;34426;52.180;4.462;2024-03-23T08:01:38;101040.16;;;7.41;96.57
48630;BME280;34426;52.180;4.462;2024-03-23T08:04:05;101032.41;;;7.43;94.00
48630;BME280;34426;52.180;4.462;2024-03-23T08:06:31;101045.59;;;7.48;94.64
48630;BME280;34426;52.180;4.462;2024-03-23T08:08:57;101039.78;;;7.38;95.63
48630;BME280;34426;52.180;4.462;2024-03-23T08:11:22;101030.84;;;7.36;96.24
48630;BME280;34426;52.180;4.462;2024-03-23T08:13:48;101045.72;;;7.41;96.11
48630;BME280;34426;52.180;4.462;2024-03-23T08:16:13;101041.22;;;7.40;95.07
48630;BME280;34426;52.180;4.462;2024-03-23T08:18:39;101047.56;;;7.36;95.92
48630;BME280;34426;52.180;4.462;2024-03-23T08:21:06;101044.50;;;7.49;95.28
48630;BME280;34426;52.180;4.462;2024-03-23T08:23:32;101022.84;;;7.51;94.91
48630;BME280;34426;52.180;4.462;2024-03-23T08:25:59;101034.69;;;7.58;94.73
48630;BME280;34426;52.180;4.462;2024-03-23T08:28:24;101046.44;;;7.60;93.52
48630;BME280;34426;52.180;4.462;2024-03-23T08:30:50;101035.78;;;7.57;91.21
48630;BME280;34426;52.180;4.462;2024-03-23T08:33:15;101043.41;;;7.50;92.53
48630;BME280;34426;52.180;4.462;2024-03-23T08:35:41;101054.91;;;7.42;93.28
48630;BME280;34426;52.180;4.462;2024-03-23T08:38:07;101017.03;;;7.41;92.97
48630;BME280;34426;52.180;4.462;2024-03-23T08:40:33;101021.63;;;7.47;92.04
48630;BME280;34426;52.180;4.462;2024-03-23T08:42:58;101028.03;;;7.59;91.96
48630;BME280;34426;52.180;4.462;2024-03-23T08:45:24;101017.75;;;7.71;92.03
48630;BME280;34426;52.180;4.462;2024-03-23T08:47:49;101032.38;;;7.66;92.83
48630;BME280;34426;52.180;4.462;2024-03-23T08:50:15;101026.81;;;7.66;90.21
48630;BME280;34426;52.180;4.462;2024-03-23T08:52:40;101036.50;;;7.64;87.33
48630;BME280;34426;52.180;4.462;2024-03-23T08:55:07;101039.28;;;7.64;89.64
48630;BME280;34426;52.180;4.462;2024-03-23T08:57:33;101050.44;;;7.64;90.87
48630;BME280;34426;52.180;4.462;2024-03-23T08:59:58;101034.31;;;7.66;90.66
48630;BME280;34426;52.180;4.462;2024-03-23T09:02:23;101027.28;;;7.75;88.86
48630;BME280;34426;52.180;4.462;2024-03-23T09:04:49;101031.53;;;7.78;88.87
48630;BME280;34426;52.180;4.462;2024-03-23T09:07:14;101023.66;;;7.75;91.35
48630;BME280;34426;52.180;4.462;2024-03-23T09:09:40;101040.13;;;7.64;91.89
48630;BME280;34426;52.180;4.462;2024-03-23T09:12:06;101027.66;;;7.67;91.55
48630;BME280;34426;52.180;4.462;2024-03-23T09:14:32;101034.44;;;7.71;90.57
48630;BME280;34426;52.180;4.462;2024-03-23T09:16:57;101031.59;;;7.83;89.53
48630;BME280;34426;52.180;4.462;2024-03-23T09:19:23;101031.94;;;7.98;88.46
48630;BME280;34426;52.180;4.462;2024-03-23T09:21:49;101043.31;;;7.96;88.46
48630;BME280;34426;52.180;4.462;2024-03-23T09:24:14;101029.28;;;7.91;89.75
48630;BME280;34426;52.180;4.462;2024-03-23T09:26:40;101025.53;;;7.86;87.86
48630;BME280;34426;52.180;4.462;2024-03-23T09:29:06;101036.34;;;7.82;87.84
48630;BME280;34426;52.180;4.462;2024-03-23T09:31:31;101031.22;;;7.91;89.22
48630;BME280;34426;52.180;4.462;2024-03-23T09:33:58;101036.28;;;8.06;90.31
48630;BME280;34426;52.180;4.462;2024-03-23T09:36:23;101034.81;;;8.15;89.03
48630;BME280;34426;52.180;4.462;2024-03-23T09:38:49;101053.03;;;8.34;87.82
48630;BME280;34426;52.180;4.462;2024-03-23T09:41:14;101037.19;;;8.23;88.14
48630;BME280;34426;52.180;4.462;2024-03-23T09:43:39;101018.78;;;8.22;87.85
48630;BME280;34426;52.180;4.462;2024-03-23T09:46:06;101061.94;;;8.19;87.50
48630;BME280;34426;52.180;4.462;2024-03-23T09:48:32;101044.03;;;8.04;88.47
48630;BME280;34426;52.180;4.462;2024-03-23T09:50:58;101045.59;;;8.11;89.71
48630;BME280;34426;52.180;4.462;2024-03-23T09:53:23;101042.34;;;8.02;90.16
48630;BME280;34426;52.180;4.462;2024-03-23T09:55:49;101052.28;;;7.98;85.92
48630;BME280;34426;52.180;4.462;2024-03-23T09:58:15;101028.72;;;8.18;85.07
48630;BME280;34426;52.180;4.462;2024-03-23T10:00:41;101033.34;;;8.52;86.35
48630;BME280;34426;52.180;4.462;2024-03-23T10:03:07;101037.63;;;8.43;84.99
48630;BME280;34426;52.180;4.462;2024-03-23T10:05:33;101035.31;;;8.40;85.23
48630;BME280;34426;52.180;4.462;2024-03-23T10:07:58;101047.56;;;8.39;83.90
48630;BME280;34426;52.180;4.462;2024-03-23T10:10:25;101031.25;;;8.59;82.94
48630;BME280;34426;52.180;4.462;2024-03-23T10:12:51;101035.97;;;8.76;81.85
48630;BME280;34426;52.180;4.462;2024-03-23T10:15:20;101043.13;;;8.55;82.10
48630;BME280;34426;52.180;4.462;2024-03-23T10:17:46;101030.00;;;8.27;85.56
48630;BME280;34426;52.180;4.462;2024-03-23T10:20:12;101053.00;;;8.06;84.01
48630;BME280;34426;52.180;4.462;2024-03-23T10:22:38;101063.25;;;8.17;84.38
48630;BME280;34426;52.180;4.462;2024-03-23T10:25:07;101035.22;;;8.23;86.35
48630;BME280;34426;52.180;4.462;2024-03-23T10:27:33;101036.56;;;8.32;88.54
48630;BME280;34426;52.180;4.462;2024-03-23T10:30:08;101031.44;;;8.29;87.40
48630;BME280;34426;52.180;4.462;2024-03-23T10:32:34;101058.72;;;8.39;85.27
48630;BME280;34426;52.180;4.462;2024-03-23T10:35:14;101032.88;;;8.44;86.05
48630;BME280;34426;52.180;4.462;2024-03-23T10:37:40;101036.91;;;8.36;85.17
48630;BME280;34426;52.180;4.462;2024-03-23T10:40:07;101030.09;;;8.32;84.44
48630;BME280;34426;52.180;4.462;2024-03-23T10:42:34;101026.25;;;8.61;85.17
48630;BME280;34426;52.180;4.462;2024-03-23T10:45:00;101014.66;;;8.70;82.12
48630;BME280;34426;52.180;4.462;2024-03-23T10:47:26;101031.38;;;8.53;82.21
48630;BME280;34426;52.180;4.462;2024-03-23T10:49:51;101022.16;;;8.24;81.63
48630;BME280;34426;52.180;4.462;2024-03-23T10:52:17;101028.66;;;8.41;83.12
48630;BME280;34426;52.180;4.462;2024-03-23T10:54:45;101031.28;;;8.48;83.55
48630;BME280;34426;52.180;4.462;2024-03-23T10:57:15;101023.03;;;8.53;83.47
48630;BME280;34426;52.180;4.462;2024-03-23T10:59:42;101016.19;;;8.60;83.80
48630;BME280;34426;52.180;4.462;2024-03-23T11:02:18;101015.84;;;8.74;81.09
48630;BME280;34426;52.180;4.462;2024-03-23T11:04:44;101021.78;;;8.60;82.15
48630;BME280;34426;52.180;4.462;2024-03-23T11:07:29;101025.41;;;8.78;80.88
48630;BME280;34426;52.180;4.462;2024-03-23T11:09:54;101025.31;;;8.73;79.67
48630;BME280;34426;52.180;4.462;2024-03-23T11:12:27;101020.19;;;8.64;80.25
48630;BME280;34426;52.180;4.462;2024-03-23T11:14:54;101024.06;;;8.35;80.79
48630;BME280;34426;52.180;4.462;2024-03-23T11:17:21;101011.22;;;8.34;78.99
48630;BME280;34426;52.180;4.462;2024-03-23T11:19:53;101013.66;;;8.59;79.96
48630;BME280;34426;52.180;4.462;2024-03-23T11:22:38;101004.88;;;8.84;79.82
48630;BME280;34426;52.180;4.462;2024-03-23T11:25:08;101018.41;;;8.92;80.64
48630;BME280;34426;52.180;4.462;2024-03-23T11:27:37;100997.53;;;8.94;80.71
48630;BME280;34426;52.180;4.462;2024-03-23T11:30:13;101007.25;;;9.09;78.55
48630;BME280;34426;52.180;4.462;2024-03-23T11:32:39;100993.38;;;9.14;77.06
48630;BME280;34426;52.180;4.462;2024-03-23T11:35:05;100994.66;;;8.89;77.64
48630;BME280;34426;52.180;4.462;2024-03-23T11:37:31;101003.00;;;8.73;78.68
48630;BME280;34426;52.180;4.462;2024-03-23T11:39:57;101020.59;;;8.56;77.85
48630;BME280;34426;52.180;4.462;2024-03-23T11:42:22;100979.88;;;8.55;79.08
48630;BME280;34426;52.180;4.462;2024-03-23T11:44:47;100985.09;;;8.68;76.29
48630;BME280;34426;52.180;4.462;2024-03-23T11:47:13;100981.88;;;8.77;74.40
48630;BME280;34426;52.180;4.462;2024-03-23T11:49:38;100988.81;;;8.91;75.05
48630;BME280;34426;52.180;4.462;2024-03-23T11:52:04;100991.19;;;8.65;77.89
48630;BME280;34426;52.180;4.462;2024-03-23T11:54:30;100989.06;;;8.73;77.88
48630;BME280;34426;52.180;4.462;2024-03-23T11:56:57;100987.81;;;8.80;76.22
48630;BME280;34426;52.180;4.462;2024-03-23T11:59:36;100985.59;;;8.82;73.93
48630;BME280;34426;52.180;4.462;2024-03-23T12:02:06;100987.38;;;9.05;73.88
48630;BME280;34426;52.180;4.462;2024-03-23T12:04:32;100977.25;;;8.82;72.68
48630;BME280;34426;52.180;4.462;2024-03-23T12:07:13;100996.28;;;9.02;72.41
48630;BME280;34426;52.180;4.462;2024-03-23T12:09:39;100985.78;;;8.92;71.67
48630;BME280;34426;52.180;4.462;2024-03-23T12:12:08;100969.72;;;8.83;71.35
48630;BME280;34426;52.180;4.462;2024-03-23T12:14:33;100945.03;;;8.91;72.05
48630;BME280;34426;52.180;4.462;2024-03-23T12:17:07;100959.88;;;9.14;73.09
48630;BME280;34426;52.180;4.462;2024-03-23T12:19:33;100943.03;;;9.25;72.33
48630;BME280;34426;52.180;4.462;2024-03-23T12:21:58;100957.81;;;9.43;70.10
48630;BME280;34426;52.180;4.462;2024-03-23T12:24:24;100959.94;;;9.36;69.02
48630;BME280;34426;52.180;4.462;2024-03-23T12:26:49;100946.84;;;9.19;68.28
48630;BME280;34426;52.180;4.462;2024-03-23T12:29:15;100961.31;;;9.16;68.38
48630;BME280;34426;52.180;4.462;2024-03-23T12:31:41;100950.16;;;9.16;69.91
48630;BME280;34426;52.180;4.462;2024-03-23T12:34:06;100947.91;;;8.96;67.31
48630;BME280;34426;52.180;4.462;2024-03-23T12:36:31;100930.63;;;9.16;68.44
48630;BME280;34426;52.180;4.462;2024-03-23T12:38:57;100949.31;;;9.16;69.94
48630;BME280;34426;52.180;4.462;2024-03-23T12:41:22;100949.63;;;9.19;72.13
48630;BME280;34426;52.180;4.462;2024-03-23T12:43:48;100941.00;;;9.21;71.91
48630;BME280;34426;52.180;4.462;2024-03-23T12:46:14;100945.13;;;9.35;72.93
48630;BME280;34426;52.180;4.462;2024-03-23T12:48:39;100950.88;;;9.28;71.86
48630;BME280;34426;52.180;4.462;2024-03-23T12:51:05;100927.53;;;9.34;70.74
48630;BME280;34426;52.180;4.462;2024-03-23T12:53:30;100941.03;;;9.64;70.47
48630;BME280;34426;52.180;4.462;2024-03-23T12:55:55;100953.91;;;9.44;70.08
48630;BME280;34426;52.180;4.462;2024-03-23T12:58:21;100950.66;;;9.13;71.02
48630;BME280;34426;52.180;4.462;2024-03-23T13:00:46;100929.66;;;8.89;73.61
48630;BME280;34426;52.180;4.462;2024-03-23T13:03:13;100944.50;;;9.11;73.37
48630;BME280;34426;52.180;4.462;2024-03-23T13:05:39;100927.88;;;8.99;73.13
48630;BME280;34426;52.180;4.462;2024-03-23T13:08:05;100938.34;;;9.48;70.20
48630;BME280;34426;52.180;4.462;2024-03-23T13:10:30;100920.50;;;9.54;69.26
48630;BME280;34426;52.180;4.462;2024-03-23T13:12:55;100926.34;;;9.30;69.16
48630;BME280;34426;52.180;4.462;2024-03-23T13:15:21;100932.78;;;9.75;67.78
48630;BME280;34426;52.180;4.462;2024-03-23T13:17:46;100926.63;;;10.21;65.67
48630;BME280;34426;52.180;4.462;2024-03-23T13:20:12;100932.56;;;10.03;63.31
48630;BME280;34426;52.180;4.462;2024-03-23T13:22:38;100928.78;;;10.41;63.51
48630;BME280;34426;52.180;4.462;2024-03-23T13:25:04;100923.09;;;10.31;63.97
48630;BME280;34426;52.180;4.462;2024-03-23T13:27:30;100910.34;;;10.45;64.27
48630;BME280;34426;52.180;4.462;2024-03-23T13:29:55;100918.00;;;10.92;61.04
48630;BME280;34426;52.180;4.462;2024-03-23T13:32:20;100907.00;;;11.17;59.16
48630;BME280;34426;52.180;4.462;2024-03-23T13:34:46;100903.72;;;11.36;59.21
48630;BME280;34426;52.180;4.462;2024-03-23T13:37:12;100900.41;;;11.44;60.07
48630;BME280;34426;52.180;4.462;2024-03-23T13:39:37;100887.19;;;12.02;59.55
48630;BME280;34426;52.180;4.462;2024-03-23T13:42:03;100892.47;;;10.83;61.52
48630;BME280;34426;52.180;4.462;2024-03-23T13:44:29;100898.31;;;11.19;59.06